Time;durP1;ratioP1;P1;durP2;ratioP2;P2;SDS_P1;SDS_P2;PMS_P1;PMS_P2;Temp;Humidity;BMP_temperature;BMP_pressure;BME280_temperature;BME280_humidity;BME280_pressure;Samples;Min_cycle;Max_cycle;Signal;HPM_P1;HPM_P2
2023/01/04 00:01:22;;;;;;;5.73;3.20;;;6.60;99.90;;;;;;4955824;28;20246;-58
2023/01/04 00:03:50;;;;;;;5.23;3.10;;;6.60;99.90;;;;;;4956630;29;20314;-59
2023/01/04 00:06:20;;;;;;;4.53;2.97;;;6.70;99.90;;;;;;4956529;28;20568;-59
2023/01/04 00:08:48;;;;;;;6.50;3.20;;;6.70;99.90;;;;;;4956351;28;20238;-58
2023/01/04 00:11:18;;;;;;;6.27;3.07;;;6.70;99.90;;;;;;4956445;29;20231;-59
2023/01/04 00:13:48;;;;;;;4.30;2.40;;;6.70;99.90;;;;;;4956545;28;20238;-58
2023/01/04 00:16:17;;;;;;;3.23;2.80;;;6.70;99.90;;;;;;4956649;28;20235;-59
2023/01/04 00:18:46;;;;;;;4.20;2.40;;;6.70;99.90;;;;;;4956117;28;20477;-59
2023/01/04 00:21:16;;;;;;;5.27;2.43;;;6.70;99.90;;;;;;4956239;28;20230;-59
2023/01/04 00:23:47;;;;;;;5.00;2.07;;;6.70;99.90;;;;;;4956276;28;20599;-57
2023/01/04 00:26:16;;;;;;;4.00;2.30;;;6.70;99.90;;;;;;4956228;28;20589;-59
2023/01/04 00:28:44;;;;;;;4.50;2.40;;;6.70;99.90;;;;;;4955747;28;20235;-58
2023/01/04 00:31:21;;;;;;;2.33;1.90;;;6.70;99.90;;;;;;4954106;29;20298;-59
2023/01/04 00:33:50;;;;;;;3.90;2.10;;;6.70;99.90;;;;;;4955288;29;20855;-59
2023/01/04 00:36:18;;;;;;;5.47;2.23;;;6.70;99.90;;;;;;4955914;29;20231;-59
2023/01/04 00:39:05;;;;;;;5.60;1.93;;;6.70;99.90;;;;;;4956043;29;20257;-59
2023/01/04 00:41:37;;;;;;;5.37;1.90;;;6.70;99.90;;;;;;4956019;29;20636;-58
2023/01/04 00:44:25;;;;;;;4.53;2.00;;;6.70;99.90;;;;;;4955028;28;20286;-58
2023/01/04 00:46:53;;;;;;;4.63;1.90;;;6.70;99.90;;;;;;4955667;29;20232;-59
2023/01/04 00:49:21;;;;;;;4.37;1.80;;;6.70;99.90;;;;;;4956016;29;20231;-59
2023/01/04 00:51:49;;;;;;;5.07;1.63;;;6.70;99.90;;;;;;4955747;29;20227;-59
2023/01/04 00:54:20;;;;;;;4.27;1.90;;;6.80;99.90;;;;;;4954380;29;20235;-59
2023/01/04 00:56:48;;;;;;;5.53;1.97;;;6.80;99.90;;;;;;4955337;28;20676;-58
2023/01/04 00:59:19;;;;;;;4.27;1.80;;;6.80;99.90;;;;;;4948131;28;20574;-59
2023/01/04 01:01:48;;;;;;;6.17;1.70;;;6.80;99.90;;;;;;4954457;28;20235;-59
2023/01/04 01:04:19;;;;;;;3.80;1.63;;;6.80;99.90;;;;;;4955277;28;20231;-59
2023/01/04 01:06:48;;;;;;;4.50;1.60;;;6.80;99.90;;;;;;4955594;28;20686;-58
2023/01/04 01:09:16;;;;;;;6.50;1.70;;;6.80;99.90;;;;;;4954997;28;20250;-59
2023/01/04 01:11:45;;;;;;;7.40;2.00;;;6.80;99.90;;;;;;4955540;28;20266;-59
2023/01/04 01:14:17;;;;;;;3.17;1.30;;;6.90;99.90;;;;;;4955553;28;20467;-58
2023/01/04 01:16:45;;;;;;;5.40;1.50;;;6.90;99.90;;;;;;4955176;29;20234;-59
2023/01/04 01:19:24;;;;;;;3.90;1.20;;;6.90;99.90;;;;;;4955137;29;20223;-57
2023/01/04 01:21:52;;;;;;;2.53;1.57;;;6.90;99.90;;;;;;4955405;28;20242;-58
2023/01/04 01:24:21;;;;;;;4.33;1.60;;;6.90;99.90;;;;;;4955326;28;20697;-59
2023/01/04 01:26:50;;;;;;;4.70;1.70;;;6.90;99.90;;;;;;4955137;28;20227;-59
2023/01/04 01:29:18;;;;;;;4.10;1.47;;;6.90;99.90;;;;;;4948045;29;20627;-59
2023/01/04 01:31:46;;;;;;;5.33;1.50;;;6.90;99.90;;;;;;4954244;28;20243;-59
2023/01/04 01:34:14;;;;;;;6.00;1.90;;;6.90;99.90;;;;;;4955216;28;20659;-59
2023/01/04 01:36:42;;;;;;;4.47;1.90;;;6.90;99.90;;;;;;4954890;28;20658;-58
2023/01/04 01:39:11;;;;;;;4.30;1.50;;;6.90;99.90;;;;;;4955208;28;20238;-59
2023/01/04 01:41:39;;;;;;;5.33;1.67;;;6.90;99.90;;;;;;4954926;28;20702;-59
2023/01/04 01:44:40;;;;;;;4.63;1.70;;;6.90;99.90;;;;;;4955165;28;20724;-58
2023/01/04 01:47:13;;;;;;;5.93;1.60;;;6.90;99.90;;;;;;4954689;29;20223;-58
2023/01/04 01:49:43;;;;;;;5.63;1.60;;;6.90;99.90;;;;;;4954968;28;20246;-58
2023/01/04 01:52:15;;;;;;;5.80;1.60;;;6.90;99.90;;;;;;4955053;28;20219;-59
2023/01/04 01:54:46;;;;;;;3.37;1.40;;;6.90;99.90;;;;;;4954792;28;20239;-59
2023/01/04 01:57:19;;;;;;;4.87;1.63;;;6.90;99.90;;;;;;4954845;29;20269;-58
2023/01/04 01:59:50;;;;;;;5.67;1.60;;;6.90;99.90;;;;;;4954366;28;20223;-59
2023/01/04 02:02:19;;;;;;;5.23;1.47;;;6.90;99.90;;;;;;4953896;28;20707;-58
2023/01/04 02:04:50;;;;;;;4.43;1.50;;;6.90;99.90;;;;;;4954315;29;20235;-59
2023/01/04 02:07:20;;;;;;;6.13;1.30;;;6.90;99.90;;;;;;4954847;29;20231;-59
2023/01/04 02:09:50;;;;;;;7.60;1.80;;;6.90;99.90;;;;;;4954706;29;20242;-59
2023/01/04 02:12:18;;;;;;;2.93;1.50;;;6.90;99.90;;;;;;4954498;29;20238;-58
2023/01/04 02:14:48;;;;;;;3.20;1.43;;;7.00;99.90;;;;;;4954373;29;21388;-59
2023/01/04 02:17:24;;;;;;;3.30;1.30;;;7.00;99.90;;;;;;4954719;29;20698;-59
2023/01/04 02:20:24;;;;;;;2.33;1.30;;;7.00;99.90;;;;;;4954773;29;20234;-58
2023/01/04 02:23:28;;;;;;;2.17;1.20;;;7.00;99.90;;;;;;4954285;29;20243;-59
2023/01/04 02:26:34;;;;;;;4.43;1.60;;;7.00;99.90;;;;;;4954479;28;20226;-58
2023/01/04 02:29:33;;;;;;;3.33;1.23;;;7.00;99.90;;;;;;4954166;28;20235;-59
2023/01/04 02:32:06;;;;;;;4.47;1.47;;;7.10;99.90;;;;;;4953478;28;20250;-58
2023/01/04 02:34:43;;;;;;;4.90;1.60;;;7.10;99.90;;;;;;4954113;29;20223;-58
2023/01/04 02:37:18;;;;;;;4.43;1.20;;;7.10;99.90;;;;;;4954124;29;20227;-59
2023/01/04 02:39:55;;;;;;;2.63;1.37;;;7.10;99.90;;;;;;4954075;28;20231;-59
2023/01/04 02:45:17;;;;;;;5.43;1.60;;;7.10;99.90;;;;;;4954205;29;20618;-59
2023/01/04 02:50:36;;;;;;;3.00;1.30;;;7.10;99.90;;;;;;4954100;29;20256;-59
2023/01/04 02:53:09;;;;;;;3.73;1.57;;;7.10;99.90;;;;;;4954532;28;20318;-58
2023/01/04 02:55:47;;;;;;;2.33;1.33;;;7.10;99.90;;;;;;4954196;28;20227;-59
2023/01/04 02:58:32;;;;;;;2.97;1.23;;;7.10;99.90;;;;;;4946307;29;20238;-58
2023/01/04 03:06:57;;;;;;;4.83;1.60;;;7.10;99.90;;;;;;4954840;28;20234;-58
2023/01/04 03:09:31;;;;;;;6.40;1.70;;;7.10;99.90;;;;;;4957449;28;20270;-58
2023/01/04 03:14:52;;;;;;;3.67;1.50;;;7.00;99.90;;;;;;4957687;28;20687;-58
2023/01/04 03:17:24;;;;;;;4.13;1.50;;;7.10;99.90;;;;;;4957804;28;20235;-57
2023/01/04 03:19:56;;;;;;;2.33;1.20;;;7.10;99.90;;;;;;4957454;28;20237;-59
2023/01/04 03:36:59;;;;;;;6.17;1.50;;;7.00;99.90;;;;;;4933516;29;20236;-59
2023/01/04 03:48:30;;;;;;;4.17;1.70;;;7.00;99.90;;;;;;4957178;29;20242;-58
2023/01/04 03:51:07;;;;;;;5.37;1.83;;;7.00;99.90;;;;;;4956827;28;20235;-58
2023/01/04 03:53:43;;;;;;;5.50;1.50;;;7.00;99.90;;;;;;4956616;28;20290;-59
2023/01/04 03:56:12;;;;;;;5.27;1.63;;;7.00;99.90;;;;;;4949167;29;20235;-58
2023/01/04 03:58:40;;;;;;;3.57;1.60;;;7.00;99.90;;;;;;4956695;28;20594;-59
2023/01/04 04:01:09;;;;;;;2.70;1.30;;;7.00;99.90;;;;;;4956071;28;20239;-59
2023/01/04 04:09:09;;;;;;;5.67;1.70;;;7.00;99.90;;;;;;4937627;29;20325;-58
2023/01/04 04:11:37;;;;;;;5.20;1.60;;;7.00;99.90;;;;;;4937472;29;20224;-58
2023/01/04 04:14:05;;;;;;;5.47;1.87;;;7.00;99.90;;;;;;4946363;28;20564;-58
2023/01/04 04:16:33;;;;;;;5.33;1.87;;;7.00;99.90;;;;;;4956747;28;20236;-58
2023/01/04 04:19:01;;;;;;;3.57;1.60;;;7.10;99.90;;;;;;4955607;28;20231;-59
2023/01/04 04:21:35;;;;;;;2.60;1.50;;;7.10;99.90;;;;;;4956091;29;20246;-59
2023/01/04 04:24:04;;;;;;;6.07;1.80;;;7.10;99.90;;;;;;4956363;28;20239;-59
2023/01/04 04:26:33;;;;;;;3.73;1.80;;;7.10;99.90;;;;;;4955924;28;20326;-59
2023/01/04 04:29:01;;;;;;;5.13;2.17;;;7.10;99.90;;;;;;4956304;28;20235;-59
2023/01/04 04:31:30;;;;;;;6.28;2.45;;;7.10;99.90;;;;;;4954757;28;20439;-59
2023/01/04 04:33:58;;;;;;;3.93;1.90;;;7.10;99.90;;;;;;4955857;28;20232;-59
2023/01/04 04:36:26;;;;;;;2.83;1.60;;;7.10;99.90;;;;;;4955992;28;20604;-58
2023/01/04 04:38:54;;;;;;;4.17;1.70;;;7.10;99.90;;;;;;4956040;28;20227;-57
2023/01/04 04:41:40;;;;;;;4.40;1.83;;;7.10;99.90;;;;;;4955843;28;20235;-59
2023/01/04 04:44:12;;;;;;;6.57;2.20;;;7.10;99.90;;;;;;4955923;29;20329;-59
2023/01/04 04:46:40;;;;;;;4.93;2.07;;;7.10;99.90;;;;;;4955985;29;20231;-59
2023/01/04 04:49:09;;;;;;;5.53;2.20;;;7.10;99.90;;;;;;4956071;28;20698;-59
2023/01/04 04:51:37;;;;;;;2.33;2.07;;;7.10;99.90;;;;;;4955599;29;20219;-59
2023/01/04 04:54:06;;;;;;;4.27;2.17;;;7.20;99.90;;;;;;4955976;28;20746;-59
2023/01/04 04:56:35;;;;;;;3.57;1.63;;;7.20;99.90;;;;;;4955731;28;20235;-59
2023/01/04 04:59:04;;;;;;;3.13;1.90;;;7.20;99.90;;;;;;4955683;29;20706;-58
2023/01/04 05:01:35;;;;;;;4.60;1.80;;;7.20;99.90;;;;;;4954917;28;20334;-59
2023/01/04 05:04:03;;;;;;;4.23;1.70;;;7.30;99.90;;;;;;4956744;28;20321;-59
2023/01/04 05:06:32;;;;;;;5.67;2.00;;;7.30;99.90;;;;;;4954311;28;20313;-58
2023/01/04 05:09:00;;;;;;;1.97;1.70;;;7.30;99.90;;;;;;4954840;29;20715;-59
2023/01/04 05:14:22;;;;;;;4.20;1.80;;;7.40;99.90;;;;;;4929688;28;20223;-59
2023/01/04 05:16:52;;;;;;;4.47;1.90;;;7.40;99.90;;;;;;4964372;28;20227;-59
2023/01/04 05:19:20;;;;;;;2.93;1.90;;;7.40;99.90;;;;;;4960638;28;20223;-58
2023/01/04 05:21:48;;;;;;;3.07;1.97;;;7.40;99.90;;;;;;4955143;28;20231;-59
2023/01/04 05:24:16;;;;;;;1.83;1.70;;;7.40;99.90;;;;;;4955229;28;20234;-59
2023/01/04 05:26:44;;;;;;;3.17;2.00;;;7.40;99.90;;;;;;4955214;29;20250;-59
2023/01/04 05:30:49;;;;;;;3.53;2.00;;;7.50;99.90;;;;;;4955227;28;20240;-59
2023/01/04 05:32:00;;;;;;;2.67;1.77;;;7.40;99.90;;;;;;4954355;28;20239;-59
2023/01/04 05:34:28;;;;;;;4.10;1.57;;;7.50;99.90;;;;;;4954918;28;20691;-59
2023/01/04 05:36:56;;;;;;;2.80;1.70;;;7.40;99.90;;;;;;4955103;29;20687;-59
2023/01/04 05:39:24;;;;;;;2.23;2.00;;;7.40;99.90;;;;;;4954573;28;20227;-59
2023/01/04 05:44:40;;;;;;;3.70;1.80;;;7.50;99.90;;;;;;4951214;28;20266;-59
2023/01/04 05:47:09;;;;;;;5.43;1.80;;;7.50;99.90;;;;;;4955105;29;20239;-59
2023/01/04 05:49:42;;;;;;;2.30;1.90;;;7.50;99.90;;;;;;4954587;28;20231;-59
2023/01/04 05:52:10;;;;;;;2.10;1.90;;;7.60;99.90;;;;;;4954733;29;20239;-59
2023/01/04 05:54:39;;;;;;;3.97;1.70;;;7.60;99.90;;;;;;4954570;29;20226;-59
2023/01/04 05:57:07;;;;;;;3.30;1.90;;;7.60;99.90;;;;;;4954937;29;20709;-59
2023/01/04 05:59:35;;;;;;;2.17;1.97;;;7.60;99.90;;;;;;4954627;28;20231;-59
2023/01/04 06:02:14;;;;;;;3.93;2.10;;;7.70;99.90;;;;;;4954031;28;20602;-58
2023/01/04 06:04:43;;;;;;;2.87;2.20;;;7.70;99.90;;;;;;4954526;28;20246;-59
2023/01/04 06:07:11;;;;;;;2.37;2.00;;;7.80;99.90;;;;;;4953831;29;20247;-58
2023/01/04 06:09:39;;;;;;;2.23;2.03;;;7.80;99.90;;;;;;4953390;28;20239;-59
2023/01/04 06:12:08;;;;;;;4.00;2.30;;;7.80;99.90;;;;;;4954396;28;20246;-59
2023/01/04 06:14:36;;;;;;;2.30;2.10;;;7.80;99.90;;;;;;4953910;28;20235;-59
2023/01/04 06:17:04;;;;;;;2.27;2.07;;;7.80;99.90;;;;;;4954447;28;20266;-59
2023/01/04 06:19:34;;;;;;;3.00;2.70;;;7.90;99.90;;;;;;4953905;28;20277;-59
2023/01/04 06:22:03;;;;;;;4.53;2.70;;;7.90;99.90;;;;;;4954107;28;20233;-59
2023/01/04 06:24:32;;;;;;;3.17;2.40;;;7.90;99.90;;;;;;4953811;29;20215;-59
2023/01/04 06:27:01;;;;;;;2.67;2.30;;;8.00;99.90;;;;;;4952246;29;20262;-59
2023/01/04 06:29:29;;;;;;;3.17;2.37;;;8.00;99.90;;;;;;4953710;28;20233;-59
2023/01/04 06:31:57;;;;;;;3.83;2.80;;;8.10;99.90;;;;;;4951929;28;20745;-59
2023/01/04 06:34:25;;;;;;;3.27;2.97;;;8.10;99.90;;;;;;4953740;28;20215;-58
2023/01/04 06:36:59;;;;;;;3.23;3.03;;;8.10;99.90;;;;;;4953831;28;20223;-59
2023/01/04 06:39:27;;;;;;;3.77;3.40;;;8.10;99.90;;;;;;4953451;29;20231;-59
2023/01/04 06:41:55;;;;;;;3.73;3.30;;;8.10;99.90;;;;;;4953944;28;20231;-59
2023/01/04 06:44:32;;;;;;;4.83;3.73;;;8.10;99.90;;;;;;4957207;29;20223;-59
2023/01/04 06:47:01;;;;;;;3.73;3.33;;;8.10;99.90;;;;;;4957960;28;20593;-58
2023/01/04 06:49:29;;;;;;;4.37;4.07;;;8.10;99.90;;;;;;4957402;28;20242;-59
2023/01/04 06:51:58;;;;;;;4.80;4.40;;;8.20;99.90;;;;;;4954936;29;20223;-59
2023/01/04 06:54:27;;;;;;;5.97;4.77;;;8.30;99.90;;;;;;4954837;29;20220;-59
2023/01/04 06:56:55;;;;;;;5.00;4.60;;;8.30;99.90;;;;;;4958044;29;20576;-59
2023/01/04 06:59:23;;;;;;;5.47;4.87;;;8.30;99.90;;;;;;4957264;28;20231;-59
2023/01/04 07:01:51;;;;;;;5.50;5.00;;;8.30;99.90;;;;;;4955097;28;20247;-59
2023/01/04 07:04:20;;;;;;;6.23;5.63;;;8.30;99.90;;;;;;4955705;29;20227;-57
2023/01/04 07:06:48;;;;;;;5.23;4.70;;;8.30;99.90;;;;;;4954712;28;20223;-59
2023/01/04 07:09:17;;;;;;;6.17;5.57;;;8.40;99.90;;;;;;4954592;29;20587;-59
2023/01/04 07:11:45;;;;;;;6.50;6.00;;;8.50;99.90;;;;;;4955744;28;20699;-58
2023/01/04 07:14:13;;;;;;;6.77;6.17;;;8.40;99.90;;;;;;4956337;28;20227;-59
2023/01/04 07:16:41;;;;;;;7.27;6.57;;;8.40;99.90;;;;;;4953278;29;20235;-59
2023/01/04 07:19:10;;;;;;;7.70;6.60;;;8.50;99.90;;;;;;4949469;29;20227;-58
2023/01/04 07:21:38;;;;;;;8.27;7.47;;;8.60;99.90;;;;;;4953267;29;20231;-59
2023/01/04 07:24:06;;;;;;;7.43;6.83;;;8.60;99.90;;;;;;4956419;28;20242;-59
2023/01/04 07:26:35;;;;;;;7.70;7.00;;;8.60;99.90;;;;;;4956182;29;20232;-57
2023/01/04 07:29:15;;;;;;;8.97;8.10;;;8.70;99.90;;;;;;4956625;29;20726;-59
2023/01/04 07:31:46;;;;;;;8.60;7.70;;;8.70;99.90;;;;;;4953400;28;20699;-58
2023/01/04 07:34:15;;;;;;;9.20;8.40;;;8.70;99.90;;;;;;4949120;29;20245;-59
2023/01/04 07:36:43;;;;;;;10.73;9.73;;;8.80;99.90;;;;;;4954948;29;20694;-58
2023/01/04 07:39:11;;;;;;;10.17;9.10;;;8.70;99.90;;;;;;4950135;29;20226;-57
2023/01/04 07:41:41;;;;;;;10.87;9.70;;;8.80;99.90;;;;;;4955402;29;20231;-58
2023/01/04 07:44:11;;;;;;;10.70;9.70;;;8.80;99.90;;;;;;4954830;29;20592;-59
2023/01/04 07:46:39;;;;;;;11.43;10.33;;;8.90;99.90;;;;;;4955622;28;20239;-59
2023/01/04 07:49:10;;;;;;;11.53;10.50;;;8.90;99.90;;;;;;4956352;28;20580;-58
2023/01/04 07:51:45;;;;;;;11.17;10.20;;;9.00;99.90;;;;;;4953683;29;20598;-58
2023/01/04 07:54:13;;;;;;;10.93;9.90;;;8.90;99.90;;;;;;4949001;29;20235;-59
2023/01/04 07:56:43;;;;;;;11.73;10.67;;;8.90;99.90;;;;;;4953562;29;20220;-59
2023/01/04 07:59:13;;;;;;;11.60;10.50;;;9.00;99.90;;;;;;4955238;28;20223;-55
2023/01/04 08:01:41;;;;;;;11.70;10.60;;;9.00;99.90;;;;;;4954788;28;20243;-58
2023/01/04 08:04:11;;;;;;;11.93;10.83;;;9.10;99.90;;;;;;4955627;28;20583;-59
2023/01/04 08:06:41;;;;;;;10.87;9.87;;;9.00;99.90;;;;;;4955770;28;20278;-59
2023/01/04 08:09:11;;;;;;;10.07;9.07;;;9.10;99.90;;;;;;4956254;28;20737;-58
2023/01/04 08:11:39;;;;;;;10.30;9.40;;;9.10;99.90;;;;;;4955739;28;20322;-59
2023/01/04 08:14:08;;;;;;;10.30;9.30;;;9.20;99.90;;;;;;4955632;28;20832;-58
2023/01/04 08:16:38;;;;;;;9.73;8.80;;;9.20;99.90;;;;;;4955383;28;20235;-59
2023/01/04 08:19:11;;;;;;;9.53;8.70;;;9.20;99.90;;;;;;4955131;28;20238;-56
2023/01/04 08:21:39;;;;;;;8.60;7.80;;;9.20;99.90;;;;;;4955308;28;20235;-59
2023/01/04 08:24:09;;;;;;;9.00;8.10;;;9.30;99.90;;;;;;4955390;28;20703;-59
2023/01/04 08:26:37;;;;;;;7.93;7.23;;;9.20;99.90;;;;;;4955483;28;20231;-59
2023/01/04 08:29:05;;;;;;;9.20;7.90;;;9.30;99.90;;;;;;4955584;28;20231;-58
2023/01/04 08:31:34;;;;;;;7.83;7.13;;;9.30;99.90;;;;;;4954768;28;20634;-58
2023/01/04 08:34:05;;;;;;;7.30;6.63;;;9.30;99.90;;;;;;4955419;28;20227;-59
2023/01/04 08:36:35;;;;;;;7.10;6.40;;;9.40;99.90;;;;;;4954986;28;20315;-59
2023/01/04 08:39:05;;;;;;;7.10;6.50;;;9.40;99.90;;;;;;4954837;28;20239;-58
2023/01/04 08:41:49;;;;;;;7.00;6.37;;;9.40;99.90;;;;;;4954254;29;20220;-58
2023/01/04 08:44:37;;;;;;;6.23;5.63;;;9.40;99.90;;;;;;4954032;29;20231;-58
2023/01/04 08:47:07;;;;;;;6.43;5.93;;;9.50;99.90;;;;;;4955116;28;20274;-59
2023/01/04 08:49:35;;;;;;;6.20;5.70;;;9.50;99.90;;;;;;4955289;28;20223;-58
2023/01/04 08:52:03;;;;;;;6.73;6.13;;;9.60;99.90;;;;;;4952273;28;20223;-58
2023/01/04 08:54:32;;;;;;;5.57;5.17;;;9.60;99.90;;;;;;4954672;28;20227;-59
2023/01/04 08:57:00;;;;;;;5.63;5.13;;;9.60;99.90;;;;;;4950692;28;20228;-58
2023/01/04 08:59:28;;;;;;;5.63;5.13;;;9.60;99.90;;;;;;4954875;28;20224;-58
2023/01/04 09:01:56;;;;;;;5.30;4.80;;;9.60;99.90;;;;;;4954207;28;20249;-59
2023/01/04 09:04:34;;;;;;;4.90;4.50;;;9.70;99.90;;;;;;4954263;28;20262;-58
2023/01/04 09:07:02;;;;;;;4.40;4.10;;;9.70;99.90;;;;;;4952646;28;20318;-57
2023/01/04 09:09:30;;;;;;;4.40;4.00;;;9.70;99.90;;;;;;4954411;28;20243;-58
2023/01/04 09:11:59;;;;;;;4.13;3.73;;;9.80;99.90;;;;;;4953502;29;20676;-59
2023/01/04 09:14:27;;;;;;;4.17;3.77;;;9.80;99.90;;;;;;4954661;28;20706;-58
2023/01/04 09:16:55;;;;;;;4.47;4.17;;;9.80;99.90;;;;;;4947456;28;20591;-59
2023/01/04 09:19:23;;;;;;;5.07;4.67;;;9.80;99.90;;;;;;4943171;29;20250;-57
2023/01/04 09:21:53;;;;;;;5.20;4.80;;;9.80;99.90;;;;;;4942836;29;20223;-59
2023/01/04 09:24:21;;;;;;;5.43;5.03;;;9.90;99.90;;;;;;4942573;29;20235;-58
2023/01/04 09:26:49;;;;;;;6.17;5.67;;;9.90;99.90;;;;;;4940475;29;20647;-58
2023/01/04 09:29:18;;;;;;;5.27;4.87;;;9.90;99.90;;;;;;4942769;28;20694;-58
2023/01/04 09:31:46;;;;;;;5.57;5.13;;;9.90;99.90;;;;;;4941526;28;20248;-58
2023/01/04 09:34:14;;;;;;;5.70;5.20;;;9.90;99.90;;;;;;4942743;28;20234;-54
2023/01/04 09:36:45;;;;;;;5.20;4.70;;;9.90;99.90;;;;;;4940522;29;20227;-57
2023/01/04 09:39:15;;;;;;;5.00;4.60;;;9.90;99.90;;;;;;4942570;29;20231;-57
2023/01/04 09:41:55;;;;;;;4.40;4.10;;;10.00;99.90;;;;;;4941421;28;20242;-58
2023/01/04 09:44:36;;;;;;;4.70;4.40;;;10.00;99.90;;;;;;4942239;29;20615;-55
2023/01/04 09:47:33;;;;;;;5.00;4.67;;;10.00;99.90;;;;;;4938867;29;20676;-58
2023/01/04 09:50:05;;;;;;;5.03;4.57;;;10.00;99.90;;;;;;4940897;29;20238;-58
2023/01/04 09:52:46;;;;;;;4.57;4.27;;;10.10;99.90;;;;;;4941294;28;20227;-58
2023/01/04 09:55:20;;;;;;;4.20;3.90;;;10.10;99.90;;;;;;4941352;29;20319;-56
2023/01/04 09:58:16;;;;;;;4.47;4.07;;;10.10;99.90;;;;;;4938287;29;20307;-58
2023/01/04 10:00:46;;;;;;;4.73;4.33;;;10.10;99.90;;;;;;4940655;28;20242;-58
2023/01/04 10:03:18;;;;;;;4.40;4.10;;;10.10;99.90;;;;;;4940091;28;20230;-58
2023/01/04 10:05:46;;;;;;;4.30;4.00;;;10.10;99.90;;;;;;4939902;28;20239;-58
2023/01/04 10:08:17;;;;;;;3.90;3.60;;;10.20;99.90;;;;;;4938022;29;20576;-58
2023/01/04 10:10:59;;;;;;;3.70;3.50;;;10.20;99.90;;;;;;4940033;29;20254;-58
2023/01/04 10:13:44;;;;;;;3.33;3.13;;;10.20;99.90;;;;;;4940506;29;20235;-56
2023/01/04 10:16:18;;;;;;;3.97;3.53;;;10.20;99.90;;;;;;4938646;28;20244;-57
2023/01/04 10:19:14;;;;;;;3.63;3.33;;;10.20;99.90;;;;;;4946046;29;20243;-57
2023/01/04 10:22:10;;;;;;;4.07;3.77;;;10.20;99.90;;;;;;4946071;28;20287;-56
2023/01/04 10:24:52;;;;;;;3.90;3.60;;;10.30;99.90;;;;;;4945441;28;20273;-57
2023/01/04 10:27:29;;;;;;;3.87;3.50;;;10.30;99.90;;;;;;4942438;28;20235;-57
2023/01/04 10:30:10;;;;;;;3.70;3.37;;;10.30;99.90;;;;;;4945308;28;20699;-54
2023/01/04 10:32:42;;;;;;;3.50;3.17;;;10.30;99.90;;;;;;4945099;29;20255;-57
2023/01/04 10:35:20;;;;;;;3.50;3.23;;;10.40;99.90;;;;;;4945700;29;20238;-57
2023/01/04 10:37:52;;;;;;;2.93;2.73;;;10.40;99.90;;;;;;4941992;29;20568;-57
2023/01/04 10:40:20;;;;;;;2.93;2.73;;;10.40;99.90;;;;;;4945056;29;20235;-56
2023/01/04 10:42:56;;;;;;;2.80;2.60;;;10.40;99.90;;;;;;4945607;28;21015;-58
2023/01/04 10:45:32;;;;;;;2.93;2.73;;;10.40;99.90;;;;;;4945219;29;20231;-58
2023/01/04 10:48:08;;;;;;;3.23;3.00;;;10.40;99.90;;;;;;4941913;29;20331;-55
2023/01/04 10:50:44;;;;;;;2.90;2.70;;;10.50;99.90;;;;;;4943761;29;21380;-58
2023/01/04 10:53:18;;;;;;;3.10;2.90;;;10.50;99.90;;;;;;4944324;29;20245;-58
2023/01/04 10:55:50;;;;;;;2.90;2.70;;;10.50;99.90;;;;;;4944591;28;20239;-54
2023/01/04 10:58:46;;;;;;;2.93;2.73;;;10.50;99.90;;;;;;4944856;28;20231;-58
2023/01/04 11:01:22;;;;;;;3.47;3.03;;;10.50;99.90;;;;;;4944433;28;20239;-57
2023/01/04 11:03:55;;;;;;;3.27;3.07;;;10.50;99.90;;;;;;4944462;28;21073;-58
2023/01/04 11:06:27;;;;;;;3.30;3.00;;;10.50;99.90;;;;;;4941338;28;20246;-58
2023/01/04 11:08:59;;;;;;;3.53;3.23;;;10.60;99.90;;;;;;4945149;28;20247;-58
2023/01/04 11:11:32;;;;;;;2.97;2.77;;;10.50;99.90;;;;;;4945189;28;20619;-58
2023/01/04 11:14:02;;;;;;;3.20;2.90;;;10.60;99.90;;;;;;4943466;28;21072;-57
2023/01/04 11:16:31;;;;;;;3.10;2.90;;;10.50;99.90;;;;;;4940605;28;20228;-56
2023/01/04 11:19:03;;;;;;;2.80;2.30;;;10.60;99.90;;;;;;4944738;29;20287;-57
2023/01/04 11:21:38;;;;;;;2.60;2.50;;;10.60;99.90;;;;;;4943188;29;20618;-57
2023/01/04 11:24:08;;;;;;;2.83;2.63;;;10.60;99.90;;;;;;4944171;28;20245;-57
2023/01/04 11:26:58;;;;;;;2.90;2.70;;;10.60;99.90;;;;;;4940216;29;20296;-54
2023/01/04 11:29:32;;;;;;;2.97;2.77;;;10.60;99.90;;;;;;4943600;28;20962;-56
2023/01/04 11:32:06;;;;;;;2.50;2.40;;;10.60;99.90;;;;;;4943525;28;20278;-58
2023/01/04 11:34:46;;;;;;;2.90;2.70;;;10.60;99.90;;;;;;4944277;28;20323;-57
2023/01/04 11:37:32;;;;;;;2.47;2.33;;;10.60;99.90;;;;;;4941474;28;20589;-59
2023/01/04 11:40:20;;;;;;;2.70;2.50;;;10.70;99.90;;;;;;4944240;28;20709;-58
2023/01/04 11:42:50;;;;;;;2.50;2.40;;;10.70;99.90;;;;;;4943438;28;20235;-58
2023/01/04 11:45:26;;;;;;;2.50;2.30;;;10.70;99.90;;;;;;4942853;29;20220;-57
2023/01/04 11:47:56;;;;;;;2.10;2.00;;;10.70;99.90;;;;;;4939446;28;20702;-58
2023/01/04 11:50:38;;;;;;;2.37;2.10;;;10.70;99.90;;;;;;4944489;28;20731;-57
2023/01/04 11:53:28;;;;;;;2.30;2.10;;;10.70;99.90;;;;;;4942757;28;20262;-57
2023/01/04 11:56:15;;;;;;;1.90;1.80;;;10.70;99.90;;;;;;4941599;29;20314;-57
2023/01/04 11:58:45;;;;;;;1.90;1.80;;;10.70;99.90;;;;;;4944040;28;20725;-57
2023/01/04 12:01:23;;;;;;;1.97;1.63;;;10.80;99.90;;;;;;4943239;28;20241;-58
2023/01/04 12:03:52;;;;;;;1.50;1.40;;;10.70;99.90;;;;;;4943796;28;20232;-60
2023/01/04 12:06:24;;;;;;;1.40;1.30;;;10.80;99.90;;;;;;4938101;29;20221;-56
2023/01/04 12:08:52;;;;;;;1.40;1.30;;;10.80;99.90;;;;;;4942993;28;20248;-58
2023/01/04 12:11:28;;;;;;;1.40;1.30;;;10.80;99.90;;;;;;4943130;28;20242;-58
2023/01/04 12:13:58;;;;;;;2.47;2.27;;;10.80;99.90;;;;;;4943411;28;20317;-58
2023/01/04 12:16:42;;;;;;;1.60;1.10;;;10.90;99.90;;;;;;4940816;28;20250;-58
2023/01/04 12:19:14;;;;;;;1.70;1.60;;;10.90;99.90;;;;;;4944235;29;20239;-58
2023/01/04 12:21:45;;;;;;;1.83;1.40;;;10.90;99.90;;;;;;4943211;28;20251;-58
2023/01/04 12:24:18;;;;;;;1.00;1.00;;;10.90;99.90;;;;;;4943182;28;20335;-58
2023/01/04 12:26:47;;;;;;;1.20;1.10;;;10.90;99.90;;;;;;4939645;29;20236;-59
2023/01/04 12:29:49;;;;;;;2.03;1.20;;;10.90;99.90;;;;;;4943112;28;20235;-59
2023/01/04 12:32:41;;;;;;;1.43;1.00;;;11.00;99.90;;;;;;4942543;28;20242;-57
2023/01/04 12:36:00;;;;;;;0.90;0.90;;;10.90;99.90;;;;;;4937191;28;20243;-58
2023/01/04 12:38:56;;;;;;;2.43;1.00;;;11.00;99.90;;;;;;4901040;29;20238;-58
2023/01/04 12:41:40;;;;;;;1.53;1.20;;;11.00;99.90;;;;;;4942951;29;20233;-58
2023/01/04 12:44:42;;;;;;;1.37;1.10;;;11.00;99.90;;;;;;4944091;29;20236;-58
2023/01/04 12:50:28;;;;;;;2.37;1.20;;;11.10;99.90;;;;;;4943324;29;20236;-58
2023/01/04 12:53:03;;;;;;;2.30;1.00;;;11.10;99.90;;;;;;4943228;28;20236;-56
2023/01/04 12:55:55;;;;;;;1.30;1.20;;;11.20;99.90;;;;;;4941228;29;20261;-57
2023/01/04 12:58:42;;;;;;;2.30;1.00;;;11.10;99.90;;;;;;4942336;28;20247;-59
2023/01/04 13:01:30;;;;;;;1.43;1.20;;;11.10;99.90;;;;;;4943203;28;20314;-58
2023/01/04 13:04:03;;;;;;;1.97;1.40;;;11.10;99.90;;;;;;4942693;29;20255;-56
2023/01/04 13:06:42;;;;;;;3.90;1.20;;;11.10;99.90;;;;;;4939370;28;21204;-57
2023/01/04 13:09:18;;;;;;;3.03;1.30;;;11.10;99.90;;;;;;4941871;29;20642;-55
2023/01/04 13:12:12;;;;;;;1.40;1.20;;;11.10;99.90;;;;;;4942388;29;20731;-59
2023/01/04 13:14:44;;;;;;;2.90;1.07;;;11.20;99.90;;;;;;4945125;28;20246;-58
2023/01/04 13:17:18;;;;;;;3.73;1.43;;;11.20;99.90;;;;;;4942025;29;20592;-58
2023/01/04 13:19:48;;;;;;;4.10;1.40;;;11.20;99.90;;;;;;4942178;28;20611;-57
2023/01/04 13:22:20;;;;;;;3.93;1.47;;;11.20;99.90;;;;;;4942080;29;20246;-55
2023/01/04 13:24:57;;;;;;;3.70;1.30;;;11.20;99.90;;;;;;4941910;29;20224;-58
2023/01/04 13:27:26;;;;;;;2.83;1.90;;;11.30;99.90;;;;;;4939159;28;20287;-55
2023/01/04 13:29:55;;;;;;;3.20;1.77;;;11.30;99.90;;;;;;4942026;29;20726;-59
2023/01/04 13:32:25;;;;;;;4.60;1.50;;;11.30;99.90;;;;;;4942033;28;20287;-58
2023/01/04 13:34:58;;;;;;;2.70;1.70;;;11.20;99.90;;;;;;4941364;29;20311;-59
2023/01/04 13:37:31;;;;;;;4.43;1.40;;;11.20;99.90;;;;;;4938217;29;20233;-56
2023/01/04 13:40:17;;;;;;;4.07;1.83;;;11.20;99.90;;;;;;4942561;29;21387;-59
2023/01/04 13:42:48;;;;;;;5.27;2.30;;;11.30;99.90;;;;;;4942000;29;20236;-58
2023/01/04 13:45:48;;;;;;;6.07;1.60;;;11.30;99.90;;;;;;4942123;28;20314;-58
2023/01/04 13:48:21;;;;;;;5.03;1.50;;;11.20;99.90;;;;;;4940962;28;21385;-58
2023/01/04 13:51:02;;;;;;;3.13;1.60;;;11.30;99.90;;;;;;4941261;28;20248;-58
2023/01/04 13:53:32;;;;;;;2.83;1.73;;;11.20;99.90;;;;;;4941667;28;20237;-58
2023/01/04 13:56:02;;;;;;;5.23;1.70;;;11.20;99.90;;;;;;4940549;29;20589;-58
2023/01/04 13:58:31;;;;;;;4.40;2.10;;;11.20;99.90;;;;;;4940955;28;20225;-58
2023/01/04 14:01:03;;;;;;;7.23;2.10;;;11.20;99.90;;;;;;4941086;28;20262;-57
2023/01/04 14:03:35;;;;;;;3.87;1.70;;;11.10;99.90;;;;;;4941008;29;20233;-58
2023/01/04 14:06:17;;;;;;;9.33;2.67;;;11.10;99.90;;;;;;4940171;29;20232;-56
2023/01/04 14:08:51;;;;;;;6.20;1.70;;;11.20;99.90;;;;;;4942018;28;20714;-58
2023/01/04 14:14:24;;;;;;;6.17;1.60;;;11.10;99.90;;;;;;4941590;29;20232;-57
2023/01/04 14:17:07;;;;;;;3.50;1.90;;;11.10;99.90;;;;;;4938609;29;20236;-58
2023/01/04 14:19:48;;;;;;;9.40;2.10;;;11.00;99.90;;;;;;4941524;29;20232;-58